TimeEST,TemperatureF,Dew PointF,Humidity,Sea Level PressureIn,VisibilityMPH,Wind Direction,Wind SpeedMPH,Gust SpeedMPH,PrecipitationIn,Events,Conditions,WindDirDegrees,DateUTC
12:56 AM,17.1,8.1,68,30.18,10.0,NNW,3.5,-,N/A,,Clear,340,2013-12-31 05:56:00
1:56 AM,18.0,8.1,65,30.18,10.0,North,4.6,-,N/A,,Clear,360,2013-12-31 06:56:00
2:56 AM,17.1,8.1,68,30.18,10.0,North,4.6,-,N/A,,Clear,350,2013-12-31 07:56:00
3:56 AM,18.0,8.1,65,30.16,10.0,North,6.9,-,N/A,,Mostly Cloudy,10,2013-12-31 08:56:00
4:56 AM,18.0,7.0,62,30.15,10.0,Calm,Calm,-,N/A,,Overcast,0,2013-12-31 09:56:00
5:56 AM,18.0,6.1,60,30.16,10.0,Calm,Calm,-,N/A,,Scattered Clouds,0,2013-12-31 10:56:00
6:56 AM,17.1,8.1,68,30.16,10.0,Calm,Calm,-,N/A,,Mostly Cloudy,0,2013-12-31 11:56:00
7:56 AM,18.0,7.0,62,30.15,10.0,Calm,Calm,-,N/A,,Mostly Cloudy,0,2013-12-31 12:56:00
8:56 AM,19.0,7.0,59,30.16,10.0,West,3.5,-,N/A,,Clear,270,2013-12-31 13:56:00
9:56 AM,21.0,9.0,60,30.14,10.0,Calm,Calm,-,N/A,,Clear,0,2013-12-31 14:56:00
10:56 AM,23.0,10.0,58,30.13,10.0,Variable,5.8,-,N/A,,Mostly Cloudy,0,2013-12-31 15:56:00
11:56 AM,25.0,10.0,53,30.10,10.0,Variable,6.9,-,N/A,,Overcast,0,2013-12-31 16:56:00
12:56 PM,27.0,10.0,49,30.07,10.0,WSW,8.1,-,N/A,,Mostly Cloudy,250,2013-12-31 17:56:00
1:56 PM,27.0,10.9,51,30.07,10.0,WSW,8.1,-,N/A,,Mostly Cloudy,240,2013-12-31 18:56:00
2:56 PM,28.9,12.9,51,30.08,10.0,Variable,4.6,-,N/A,,Mostly Cloudy,0,2013-12-31 19:56:00
3:56 PM,28.9,16.0,58,30.10,10.0,WSW,6.9,-,N/A,,Mostly Cloudy,250,2013-12-31 20:56:00
4:40 PM,28.4,21.2,74,30.07,1.0,West,9.2,18.4,0.00,Snow,Light Snow,260,2013-12-31 21:40:00
4:56 PM,28.0,21.0,75,30.11,10.0,West,11.5,18.4,0.00,,Scattered Clouds,260,2013-12-31 21:56:00
5:56 PM,28.0,19.0,69,30.12,10.0,West,8.1,16.1,N/A,,Scattered Clouds,270,2013-12-31 22:56:00
6:56 PM,28.9,16.0,58,30.17,10.0,West,10.4,-,N/A,,Mostly Cloudy,280,2013-12-31 23:56:00
7:56 PM,28.0,12.0,51,30.18,10.0,NW,15.0,26.5,N/A,,Clear,310,2014-01-01 00:56:00
8:56 PM,27.0,10.0,49,30.22,10.0,NW,12.7,-,N/A,,Clear,310,2014-01-01 01:56:00
9:56 PM,26.1,5.0,41,30.24,10.0,WNW,12.7,20.7,N/A,,Clear,290,2014-01-01 02:56:00
10:56 PM,24.1,5.0,44,30.26,10.0,WNW,17.3,23.0,N/A,,Clear,300,2014-01-01 03:56:00
11:56 PM,24.1,5.0,44,30.27,10.0,West,5.8,-,N/A,,Clear,270,2014-01-01 04:56:00